Time;durP1;ratioP1;P1;durP2;ratioP2;P2;SDS_P1;SDS_P2;PMS_P1;PMS_P2;Temp;Humidity;BMP_temperature;BMP_pressure;BME280_temperature;BME280_humidity;BME280_pressure;Samples;Min_cycle;Max_cycle;Signal;HPM_P1;HPM_P2
2023/07/21 00:01:16;;;;;;;17.17;10.82;;;13.20;99.90;;;;;;4991877;28;20054;-86
2023/07/21 00:03:43;;;;;;;17.88;10.45;;;13.30;99.90;;;;;;4980293;28;20011;-86
2023/07/21 00:06:09;;;;;;;20.85;11.38;;;13.30;99.90;;;;;;4979541;28;20015;-87
2023/07/21 00:08:35;;;;;;;19.35;10.70;;;13.30;99.90;;;;;;4981958;28;20015;-86
2023/07/21 00:11:02;;;;;;;21.02;12.02;;;13.30;99.90;;;;;;4982558;28;20023;-87
2023/07/21 00:13:29;;;;;;;21.52;11.50;;;13.30;99.90;;;;;;4982855;28;20010;-90
2023/07/21 00:15:58;;;;;;;19.10;10.18;;;13.30;99.90;;;;;;4969916;28;20035;-88
2023/07/21 00:18:23;;;;;;;20.63;11.57;;;13.20;99.90;;;;;;4998926;28;20033;-87
2023/07/21 00:20:51;;;;;;;17.70;10.70;;;13.20;99.90;;;;;;4994074;28;20034;-87
2023/07/21 00:23:20;;;;;;;18.40;10.82;;;13.20;99.90;;;;;;4992003;28;20007;-85
2023/07/21 00:25:50;;;;;;;20.33;10.98;;;13.20;99.90;;;;;;4978180;28;20067;-88
2023/07/21 00:28:17;;;;;;;18.88;10.98;;;13.20;99.90;;;;;;4982083;28;20019;-88
2023/07/21 00:30:45;;;;;;;22.33;11.38;;;13.10;99.90;;;;;;4993018;28;20087;-88
2023/07/21 00:33:11;;;;;;;18.45;11.23;;;13.10;99.90;;;;;;4982304;28;20015;-87
2023/07/21 00:35:36;;;;;;;19.40;11.57;;;13.10;99.90;;;;;;4999109;28;20042;-88
2023/07/21 00:38:03;;;;;;;19.92;11.23;;;13.00;99.90;;;;;;5001463;28;20057;-92
2023/07/21 00:40:30;;;;;;;16.08;10.52;;;13.00;99.90;;;;;;4981489;28;20033;-87
2023/07/21 00:42:57;;;;;;;18.92;11.35;;;13.00;99.90;;;;;;4994596;28;20083;-86
2023/07/21 00:45:24;;;;;;;17.73;10.80;;;13.00;99.90;;;;;;4983237;28;20030;-89
2023/07/21 00:47:51;;;;;;;20.35;10.60;;;13.00;99.90;;;;;;4995216;28;20015;-87
2023/07/21 00:50:17;;;;;;;18.73;11.05;;;13.00;99.90;;;;;;4998656;28;20043;-87
2023/07/21 00:52:43;;;;;;;18.67;10.88;;;13.00;99.90;;;;;;4999005;28;20071;-89
2023/07/21 00:55:10;;;;;;;19.08;11.55;;;12.90;99.90;;;;;;4982396;28;20007;-88
2023/07/21 00:57:36;;;;;;;21.73;11.60;;;12.90;99.90;;;;;;4966589;28;20022;-88
2023/07/21 01:00:07;;;;;;;21.20;11.30;;;12.80;99.90;;;;;;4982299;28;20019;-87
2023/07/21 01:02:34;;;;;;;20.77;11.52;;;12.80;99.90;;;;;;4982215;28;20038;-87
2023/07/21 01:05:01;;;;;;;17.40;10.77;;;12.70;99.90;;;;;;4974580;28;20011;-88
2023/07/21 01:07:32;;;;;;;18.27;11.63;;;12.70;99.90;;;;;;4982338;28;20015;-87
2023/07/21 01:09:58;;;;;;;17.30;9.82;;;12.70;99.90;;;;;;4999066;28;20031;-87
2023/07/21 01:12:28;;;;;;;22.55;10.65;;;12.70;99.90;;;;;;4995179;28;20026;-91
2023/07/21 01:14:54;;;;;;;19.05;11.35;;;12.70;99.90;;;;;;5006993;28;20026;-88
2023/07/21 01:17:25;;;;;;;20.05;10.32;;;12.70;99.90;;;;;;4981853;28;20015;-88
2023/07/21 01:19:51;;;;;;;17.60;10.90;;;12.70;99.90;;;;;;4982118;28;20010;-89
2023/07/21 01:22:32;;;;;;;17.40;9.70;;;12.70;99.90;;;;;;4998561;28;20027;-86
2023/07/21 01:25:09;;;;;;;18.17;10.20;;;12.70;99.90;;;;;;4999276;28;20098;-86
2023/07/21 01:27:39;;;;;;;16.73;10.38;;;12.70;99.90;;;;;;4999388;28;20082;-87
2023/07/21 01:30:11;;;;;;;24.10;11.50;;;12.80;99.90;;;;;;4998331;28;20011;-86
2023/07/21 01:32:42;;;;;;;19.17;10.80;;;12.80;99.90;;;;;;4996635;28;20011;-88
2023/07/21 01:35:10;;;;;;;19.85;10.40;;;12.80;99.90;;;;;;4998641;28;20035;-90
2023/07/21 01:37:41;;;;;;;21.42;10.93;;;12.90;99.90;;;;;;4965982;28;20011;-89
2023/07/21 01:40:08;;;;;;;24.80;11.55;;;12.90;99.90;;;;;;4973870;28;20082;-88
2023/07/21 01:42:35;;;;;;;19.00;10.25;;;12.90;99.90;;;;;;4984855;28;20031;-86
2023/07/21 01:45:02;;;;;;;18.23;10.45;;;12.90;99.90;;;;;;4983432;28;20015;-87
2023/07/21 01:47:31;;;;;;;21.98;11.20;;;12.90;99.90;;;;;;4982390;28;20035;-90
2023/07/21 01:49:58;;;;;;;19.40;11.07;;;12.90;99.90;;;;;;5000642;28;20007;-93
2023/07/21 01:52:29;;;;;;;18.05;10.90;;;12.90;99.90;;;;;;4998787;28;20037;-87
2023/07/21 01:55:21;;;;;;;23.88;12.65;;;12.90;99.90;;;;;;5000658;28;20094;-88
2023/07/21 01:57:54;;;;;;;22.42;11.98;;;12.90;99.90;;;;;;4978989;28;20081;-89
2023/07/21 02:00:22;;;;;;;24.77;11.95;;;12.90;99.90;;;;;;4984623;28;20026;-91
2023/07/21 02:02:50;;;;;;;22.52;11.70;;;12.90;99.90;;;;;;5001225;28;20055;-86
2023/07/21 02:05:27;;;;;;;21.27;11.65;;;12.90;99.90;;;;;;5001619;28;20045;-91
2023/07/21 02:07:53;;;;;;;23.52;12.50;;;12.90;99.90;;;;;;4996748;28;20131;-94
2023/07/21 02:10:20;;;;;;;25.40;12.60;;;12.90;99.90;;;;;;4978791;28;20031;-92
2023/07/21 02:12:46;;;;;;;31.30;13.73;;;12.90;99.90;;;;;;4981598;28;20039;-87
2023/07/21 02:15:11;;;;;;;23.55;12.93;;;13.00;99.90;;;;;;4984271;28;20018;-93
2023/07/21 02:17:38;;;;;;;24.90;11.57;;;13.00;99.90;;;;;;4981421;28;20031;-92
2023/07/21 02:20:07;;;;;;;23.30;11.52;;;13.00;99.90;;;;;;4999281;28;20087;-93
2023/07/21 02:22:33;;;;;;;22.77;12.18;;;13.00;99.90;;;;;;4984382;28;20039;-88
2023/07/21 02:24:59;;;;;;;23.23;12.27;;;13.00;99.90;;;;;;4984019;28;20042;-93
2023/07/21 02:27:25;;;;;;;21.77;11.18;;;13.00;99.90;;;;;;4983141;28;20026;-94
2023/07/21 02:29:51;;;;;;;26.30;12.00;;;13.00;99.90;;;;;;4999305;28;20018;-93
2023/07/21 02:32:17;;;;;;;23.73;12.10;;;13.00;99.90;;;;;;4983657;28;20026;-91
2023/07/21 02:34:43;;;;;;;23.10;12.13;;;13.00;99.90;;;;;;4979666;28;20066;-95
2023/07/21 02:37:08;;;;;;;21.10;11.32;;;13.00;99.90;;;;;;4978875;28;20037;-92
2023/07/21 02:39:35;;;;;;;18.55;10.27;;;12.90;99.90;;;;;;4981220;28;20042;-95
2023/07/21 02:42:00;;;;;;;19.50;10.95;;;12.90;99.90;;;;;;4981556;28;20034;-92
2023/07/21 02:44:30;;;;;;;24.88;12.23;;;12.90;99.90;;;;;;4994155;28;20035;-94
2023/07/21 02:46:57;;;;;;;19.83;10.65;;;12.90;99.90;;;;;;4988267;28;20037;-94
2023/07/21 02:49:23;;;;;;;18.98;10.68;;;12.80;99.90;;;;;;4979948;28;20027;-93
2023/07/21 02:51:49;;;;;;;18.85;10.30;;;12.80;99.90;;;;;;4995571;28;20021;-94
2023/07/21 02:54:14;;;;;;;21.98;11.70;;;12.80;99.90;;;;;;4998412;28;20035;-89
2023/07/21 02:56:41;;;;;;;20.65;11.18;;;12.80;99.90;;;;;;4962077;28;20019;-95
2023/07/21 02:59:09;;;;;;;22.42;11.70;;;12.80;99.90;;;;;;4998018;28;20057;-95
2023/07/21 03:01:35;;;;;;;19.17;10.65;;;12.70;99.90;;;;;;5000251;28;20043;-88
2023/07/21 03:04:03;;;;;;;17.02;9.32;;;12.70;99.90;;;;;;4983990;28;20025;-89
2023/07/21 03:06:30;;;;;;;16.85;9.63;;;12.80;99.90;;;;;;5000395;28;20021;-88
2023/07/21 03:08:56;;;;;;;17.13;9.25;;;12.70;99.90;;;;;;5000341;28;20010;-89
2023/07/21 03:11:22;;;;;;;22.85;10.00;;;12.70;99.90;;;;;;4982976;28;20042;-90
2023/07/21 03:13:48;;;;;;;16.33;9.68;;;12.70;99.90;;;;;;4983607;28;20043;-91
2023/07/21 03:16:14;;;;;;;14.82;8.77;;;12.60;99.90;;;;;;4983546;28;20158;-89
2023/07/21 03:18:40;;;;;;;15.57;8.88;;;12.60;99.90;;;;;;4983542;28;20015;-92
2023/07/21 03:21:06;;;;;;;17.02;8.90;;;12.60;99.90;;;;;;4983271;28;20073;-88
2023/07/21 03:23:32;;;;;;;19.27;9.85;;;12.60;99.90;;;;;;4983601;28;20042;-88
2023/07/21 03:25:58;;;;;;;17.70;9.65;;;12.60;99.90;;;;;;4983376;28;20031;-89
2023/07/21 03:28:25;;;;;;;17.17;9.55;;;12.70;99.90;;;;;;4983539;28;20054;-87
2023/07/21 03:31:00;;;;;;;17.58;9.00;;;12.60;99.90;;;;;;4983492;28;20026;-87
2023/07/21 03:33:26;;;;;;;17.58;9.48;;;12.60;99.90;;;;;;4980843;28;20014;-88
2023/07/21 03:36:04;;;;;;;15.85;7.85;;;12.60;99.90;;;;;;4983000;28;20023;-90
2023/07/21 03:38:33;;;;;;;17.85;9.13;;;12.50;99.90;;;;;;4983118;28;20011;-89
2023/07/21 03:41:10;;;;;;;20.00;10.13;;;12.50;99.90;;;;;;4983072;28;20034;-87
2023/07/21 03:43:39;;;;;;;19.98;10.32;;;12.60;99.90;;;;;;4999666;28;20011;-87
2023/07/21 03:46:06;;;;;;;22.20;9.97;;;12.50;99.90;;;;;;4983444;28;20038;-87
2023/07/21 03:48:33;;;;;;;21.30;10.23;;;12.50;99.90;;;;;;4982814;28;20015;-87
2023/07/21 03:51:00;;;;;;;17.95;9.88;;;12.50;99.90;;;;;;4999732;28;20223;-88
2023/07/21 03:53:27;;;;;;;23.95;12.40;;;12.50;99.90;;;;;;4982810;28;20019;-87
2023/07/21 03:55:54;;;;;;;23.00;11.85;;;12.50;99.90;;;;;;4982857;28;20023;-89
2023/07/21 03:58:20;;;;;;;27.35;12.57;;;12.50;99.90;;;;;;4982396;28;20039;-88
2023/07/21 04:00:48;;;;;;;23.70;11.68;;;12.50;99.90;;;;;;4982662;28;20037;-89
2023/07/21 04:03:13;;;;;;;25.80;12.80;;;12.50;99.90;;;;;;4999000;28;20026;-89
2023/07/21 04:05:39;;;;;;;26.30;13.88;;;12.50;99.90;;;;;;4982268;28;20023;-92
2023/07/21 04:08:05;;;;;;;22.80;12.95;;;12.50;99.90;;;;;;4982127;28;20030;-88
2023/07/21 04:10:32;;;;;;;24.23;12.98;;;12.50;99.90;;;;;;4981485;28;20027;-90
2023/07/21 04:12:58;;;;;;;22.65;12.95;;;12.50;99.90;;;;;;4998684;28;20102;-88
2023/07/21 04:15:25;;;;;;;24.05;12.88;;;12.50;99.90;;;;;;4981416;28;20045;-92
2023/07/21 04:17:51;;;;;;;23.20;12.32;;;12.50;99.90;;;;;;4981514;28;20053;-91
2023/07/21 04:20:17;;;;;;;23.95;11.85;;;12.50;99.90;;;;;;4982093;28;20031;-91
2023/07/21 04:22:43;;;;;;;24.42;13.20;;;12.40;99.90;;;;;;4982312;28;20027;-92
2023/07/21 04:25:11;;;;;;;27.98;12.45;;;12.40;99.90;;;;;;4998427;28;20046;-92
2023/07/21 04:27:36;;;;;;;22.27;12.18;;;12.50;99.90;;;;;;4998306;28;20011;-92
2023/07/21 04:30:03;;;;;;;19.10;10.95;;;12.40;99.90;;;;;;4981937;28;20090;-91
2023/07/21 04:32:28;;;;;;;27.27;11.82;;;12.40;99.90;;;;;;4999369;28;20015;-90
2023/07/21 04:34:55;;;;;;;24.25;11.35;;;12.40;99.90;;;;;;4982618;28;20090;-87
2023/07/21 04:37:20;;;;;;;19.85;10.38;;;12.40;99.90;;;;;;4982689;28;20017;-88
2023/07/21 04:39:46;;;;;;;20.40;10.73;;;12.40;99.90;;;;;;4982685;28;20019;-88
2023/07/21 04:42:11;;;;;;;22.73;10.73;;;12.40;99.90;;;;;;4981991;28;20042;-89
2023/07/21 04:44:37;;;;;;;17.38;10.02;;;12.40;99.90;;;;;;4998834;28;20014;-90
2023/07/21 04:47:06;;;;;;;18.77;10.15;;;12.40;99.90;;;;;;4982009;28;20034;-90
2023/07/21 04:49:31;;;;;;;18.95;10.30;;;12.30;99.90;;;;;;4998386;28;20034;-92
2023/07/21 04:52:00;;;;;;;21.17;10.45;;;12.40;99.90;;;;;;4998190;28;20019;-93
2023/07/21 04:54:26;;;;;;;20.10;9.90;;;12.30;99.90;;;;;;4981084;28;20034;-91
2023/07/21 04:56:52;;;;;;;18.25;9.20;;;12.40;99.90;;;;;;4978665;28;20117;-93
2023/07/21 04:59:18;;;;;;;16.25;9.73;;;12.40;99.90;;;;;;4994691;28;20026;-95
2023/07/21 05:01:47;;;;;;;19.27;9.82;;;12.40;99.90;;;;;;4975817;28;20034;-94
2023/07/21 05:04:14;;;;;;;18.63;9.45;;;12.40;99.90;;;;;;4964500;28;20049;-95
2023/07/21 05:06:43;;;;;;;14.07;8.82;;;12.40;99.90;;;;;;4966255;28;20038;-94
2023/07/21 05:09:09;;;;;;;16.90;9.10;;;12.40;99.90;;;;;;4967215;28;20038;-93
2023/07/21 05:11:35;;;;;;;16.30;8.32;;;12.40;99.90;;;;;;4998792;28;20025;-93
2023/07/21 05:14:03;;;;;;;23.38;9.00;;;12.40;99.90;;;;;;4995483;28;20026;-93
2023/07/21 05:16:29;;;;;;;17.40;8.88;;;12.50;99.90;;;;;;4978765;28;20098;-95
2023/07/21 05:18:54;;;;;;;16.50;8.38;;;12.50;99.90;;;;;;4980714;28;20050;-94
2023/07/21 05:21:20;;;;;;;14.90;7.75;;;12.50;99.90;;;;;;4983757;28;20497;-92
2023/07/21 05:23:46;;;;;;;14.88;8.40;;;12.50;99.90;;;;;;4982516;28;20065;-92
2023/07/21 05:26:11;;;;;;;21.65;8.50;;;12.50;99.90;;;;;;4980674;28;20047;-91
2023/07/21 05:28:38;;;;;;;17.23;7.82;;;12.50;99.90;;;;;;5001345;28;20070;-91
2023/07/21 05:31:03;;;;;;;16.42;8.18;;;12.50;99.90;;;;;;4984949;28;20026;-89
2023/07/21 05:33:29;;;;;;;14.38;8.00;;;12.60;99.90;;;;;;5000615;28;20031;-93
2023/07/21 05:36:07;;;;;;;16.67;8.25;;;12.60;99.90;;;;;;4983257;28;20105;-87
2023/07/21 05:38:34;;;;;;;15.77;8.02;;;12.60;99.90;;;;;;5000897;28;20019;-90
2023/07/21 05:41:00;;;;;;;21.77;9.20;;;12.70;99.90;;;;;;5001152;28;20102;-91
2023/07/21 05:43:26;;;;;;;12.15;7.35;;;12.70;99.90;;;;;;4983625;28;20035;-86
2023/07/21 05:45:51;;;;;;;17.65;9.00;;;12.70;99.90;;;;;;4984132;28;20038;-85
2023/07/21 05:48:19;;;;;;;14.27;7.78;;;12.70;99.90;;;;;;4996417;28;20062;-88
2023/07/21 05:50:45;;;;;;;16.15;7.88;;;12.80;99.90;;;;;;4985056;28;20019;-86
2023/07/21 05:53:10;;;;;;;14.80;7.93;;;12.90;99.90;;;;;;5001169;28;20022;-87
2023/07/21 05:55:37;;;;;;;16.60;8.18;;;12.90;99.90;;;;;;5001693;28;20014;-90
2023/07/21 05:58:02;;;;;;;16.05;8.82;;;12.90;99.90;;;;;;4981074;28;20038;-90
2023/07/21 06:00:28;;;;;;;20.25;9.02;;;12.90;99.90;;;;;;4984648;28;20003;-88
2023/07/21 06:02:54;;;;;;;14.23;8.82;;;12.90;99.90;;;;;;5001216;28;20010;-87
2023/07/21 06:05:20;;;;;;;14.00;8.15;;;12.90;99.90;;;;;;4983889;28;20042;-87
2023/07/21 06:07:45;;;;;;;15.43;8.95;;;12.90;99.90;;;;;;4983907;28;20038;-87
2023/07/21 06:10:12;;;;;;;16.63;9.60;;;12.90;99.90;;;;;;4983886;28;20030;-89
2023/07/21 06:12:38;;;;;;;18.20;9.15;;;13.00;99.90;;;;;;5001191;28;20019;-86
2023/07/21 06:15:06;;;;;;;16.42;9.10;;;13.00;99.90;;;;;;5001033;28;20022;-87
2023/07/21 06:17:32;;;;;;;17.55;9.40;;;13.00;99.90;;;;;;5001580;28;20074;-87
2023/07/21 06:19:58;;;;;;;17.17;9.40;;;13.00;99.90;;;;;;4984309;28;20039;-88
2023/07/21 06:22:23;;;;;;;18.88;10.13;;;13.10;99.90;;;;;;5000258;28;20045;-89
2023/07/21 06:24:49;;;;;;;22.20;10.30;;;13.10;99.90;;;;;;4983581;28;20029;-90
2023/07/21 06:27:16;;;;;;;16.45;8.90;;;13.20;99.90;;;;;;5000696;28;20047;-92
2023/07/21 06:29:41;;;;;;;17.23;9.48;;;13.20;99.90;;;;;;4983913;28;20594;-90
2023/07/21 06:32:07;;;;;;;18.30;10.35;;;13.20;99.90;;;;;;4983686;28;20023;-90
2023/07/21 06:34:33;;;;;;;15.80;9.52;;;13.20;99.90;;;;;;5000582;28;20030;-88
2023/07/21 06:36:59;;;;;;;15.90;8.93;;;13.20;99.90;;;;;;4980725;28;20015;-88
2023/07/21 06:39:24;;;;;;;13.98;8.45;;;13.30;99.90;;;;;;4980738;28;20024;-89
2023/07/21 06:41:51;;;;;;;14.75;8.38;;;13.40;99.90;;;;;;4982612;28;20020;-90
2023/07/21 06:44:17;;;;;;;14.30;8.60;;;13.40;99.90;;;;;;4983828;28;20054;-89
2023/07/21 06:46:45;;;;;;;14.30;8.45;;;13.40;99.90;;;;;;4983433;28;20030;-89
2023/07/21 06:49:11;;;;;;;18.10;9.10;;;13.50;99.90;;;;;;4982979;28;20011;-90
2023/07/21 06:51:36;;;;;;;16.27;8.95;;;13.50;99.90;;;;;;5001015;28;20023;-88
2023/07/21 06:54:08;;;;;;;14.73;7.75;;;13.50;99.90;;;;;;5000282;28;20027;-88
2023/07/21 06:56:34;;;;;;;20.00;8.90;;;13.60;99.90;;;;;;4984057;28;20090;-89
2023/07/21 06:59:00;;;;;;;15.70;7.68;;;13.70;99.90;;;;;;4984504;28;20019;-87
2023/07/21 07:01:26;;;;;;;18.52;9.18;;;13.70;99.90;;;;;;4984219;28;20073;-88
2023/07/21 07:03:53;;;;;;;15.18;8.00;;;13.70;99.90;;;;;;4984352;28;20010;-89
2023/07/21 07:06:18;;;;;;;12.48;7.50;;;13.80;99.90;;;;;;5000576;28;20015;-90
2023/07/21 07:08:44;;;;;;;14.38;8.20;;;13.80;99.90;;;;;;4982070;28;20030;-87
2023/07/21 07:11:11;;;;;;;16.98;7.80;;;13.90;99.90;;;;;;4984089;28;20030;-92
2023/07/21 07:13:37;;;;;;;14.45;7.30;;;13.90;99.90;;;;;;4983124;28;20030;-88
2023/07/21 07:16:03;;;;;;;13.13;7.72;;;13.90;99.90;;;;;;4995249;28;20034;-91
2023/07/21 07:18:29;;;;;;;15.57;7.40;;;14.00;99.90;;;;;;4993759;28;20058;-93
2023/07/21 07:20:56;;;;;;;16.92;8.50;;;14.00;99.90;;;;;;4971461;28;20031;-94
2023/07/21 07:23:23;;;;;;;15.80;7.95;;;13.90;99.90;;;;;;4972741;28;20026;-88
2023/07/21 07:25:50;;;;;;;16.52;8.52;;;14.00;99.90;;;;;;4997760;28;20066;-95
2023/07/21 07:28:20;;;;;;;16.65;8.95;;;14.00;99.90;;;;;;4988297;28;20027;-89
2023/07/21 07:30:46;;;;;;;12.43;8.18;;;14.00;99.90;;;;;;4982970;28;20094;-93
2023/07/21 07:33:14;;;;;;;14.63;7.88;;;14.00;99.90;;;;;;4970879;28;20041;-95
2023/07/21 07:35:51;;;;;;;15.90;7.80;;;14.00;99.90;;;;;;4972793;28;20026;-93
2023/07/21 07:38:19;;;;;;;12.82;7.35;;;13.90;99.90;;;;;;4987371;28;20046;-93
2023/07/21 07:40:47;;;;;;;14.57;8.63;;;14.00;99.90;;;;;;4968734;28;20031;-96
2023/07/21 07:43:13;;;;;;;13.57;8.00;;;13.90;99.90;;;;;;4968813;28;20118;-94
2023/07/21 07:45:39;;;;;;;18.33;8.05;;;14.00;99.90;;;;;;4973623;28;20027;-95
2023/07/21 07:48:07;;;;;;;15.02;8.75;;;14.00;99.90;;;;;;4969578;28;20031;-93
2023/07/21 07:50:39;;;;;;;17.85;9.07;;;14.00;99.90;;;;;;4966847;28;20027;-96
2023/07/21 07:53:08;;;;;;;14.32;8.45;;;14.10;99.90;;;;;;4991851;28;20015;-88
2023/07/21 07:55:42;;;;;;;14.73;7.85;;;14.20;99.90;;;;;;4980304;28;20039;-88
2023/07/21 07:58:08;;;;;;;13.20;8.05;;;14.30;99.90;;;;;;4979420;28;20011;-92
2023/07/21 08:00:38;;;;;;;18.75;7.90;;;14.50;99.90;;;;;;4978444;28;20022;-89
2023/07/21 08:03:05;;;;;;;13.45;8.38;;;14.60;99.90;;;;;;4992871;28;20137;-94
2023/07/21 08:05:41;;;;;;;16.77;7.00;;;14.80;99.90;;;;;;4991631;28;20015;-94
2023/07/21 08:08:08;;;;;;;13.95;7.53;;;14.80;99.90;;;;;;4981335;28;20003;-90
2023/07/21 08:10:35;;;;;;;14.70;6.72;;;14.90;99.90;;;;;;4982290;28;20059;-89
2023/07/21 08:13:04;;;;;;;15.10;7.22;;;14.90;99.90;;;;;;4998080;28;20027;-94
2023/07/21 08:15:30;;;;;;;15.77;6.85;;;14.90;99.90;;;;;;4983260;28;20102;-93
2023/07/21 08:17:55;;;;;;;14.90;7.13;;;14.90;99.90;;;;;;4992025;28;20015;-91
2023/07/21 08:20:21;;;;;;;12.70;7.63;;;14.90;99.90;;;;;;4994887;28;20041;-94
2023/07/21 08:22:49;;;;;;;13.27;7.55;;;14.90;99.90;;;;;;4974714;28;20038;-94
2023/07/21 08:25:19;;;;;;;11.32;7.07;;;15.00;99.90;;;;;;4972154;28;20098;-91
2023/07/21 08:27:45;;;;;;;13.95;7.93;;;15.10;99.90;;;;;;4986167;28;20031;-91
2023/07/21 08:30:13;;;;;;;12.77;7.38;;;15.30;99.90;;;;;;4967718;28;20041;-94
2023/07/21 08:32:40;;;;;;;14.18;7.35;;;15.40;99.90;;;;;;4964682;29;20083;-94
2023/07/21 08:35:07;;;;;;;11.90;6.60;;;15.40;99.90;;;;;;4950586;28;20050;-94
2023/07/21 08:37:33;;;;;;;16.75;7.45;;;15.40;99.90;;;;;;4978692;28;20018;-94
2023/07/21 08:39:59;;;;;;;16.45;8.48;;;15.40;99.90;;;;;;4980239;28;20086;-94
2023/07/21 08:42:26;;;;;;;17.02;7.43;;;15.40;99.90;;;;;;4979688;28;20046;-93
2023/07/21 08:44:53;;;;;;;12.60;7.75;;;15.50;99.90;;;;;;4979568;28;20499;-95
2023/07/21 08:47:20;;;;;;;14.60;7.93;;;15.50;99.90;;;;;;4973749;28;20027;-93
2023/07/21 08:49:46;;;;;;;15.20;7.68;;;15.50;99.90;;;;;;4979554;28;20511;-95
2023/07/21 08:52:12;;;;;;;9.65;5.75;;;15.50;99.90;;;;;;4964463;28;20113;-94
2023/07/21 08:54:38;;;;;;;15.60;6.70;;;15.70;99.90;;;;;;4963594;28;20432;-93
2023/07/21 08:57:04;;;;;;;11.32;5.85;;;15.70;99.90;;;;;;4968120;28;20031;-93
2023/07/21 08:59:29;;;;;;;13.20;6.72;;;15.70;99.90;;;;;;4962003;28;20027;-93
2023/07/21 09:01:55;;;;;;;13.32;6.65;;;15.80;99.90;;;;;;4967512;28;20078;-94
2023/07/21 09:04:23;;;;;;;10.95;6.28;;;15.80;99.90;;;;;;4971584;28;20030;-95
2023/07/21 09:06:54;;;;;;;12.48;5.85;;;15.80;99.90;;;;;;4977625;28;20041;-94
2023/07/21 09:09:20;;;;;;;;;;;15.80;99.90;;;;;;4972105;28;20536;-95
2023/07/21 09:11:47;;;;;;;8.95;5.25;;;15.80;99.90;;;;;;4978489;28;19906;-95
2023/07/21 09:14:12;;;;;;;11.88;5.80;;;15.70;99.90;;;;;;4978592;28;20035;-94
2023/07/21 09:16:39;;;;;;;14.10;5.63;;;15.80;99.90;;;;;;4975279;28;20087;-94
2023/07/21 09:19:07;;;;;;;9.13;5.40;;;15.80;99.90;;;;;;4969708;28;20035;-93
2023/07/21 09:21:35;;;;;;;8.85;5.40;;;15.80;99.90;;;;;;4967348;28;20049;-93
2023/07/21 09:24:08;;;;;;;10.32;6.00;;;15.80;99.90;;;;;;4961009;28;20405;-91
2023/07/21 09:26:34;;;;;;;10.15;5.35;;;15.80;99.90;;;;;;4963867;28;20146;-93
2023/07/21 09:29:00;;;;;;;12.15;6.03;;;15.80;99.90;;;;;;4980091;28;20050;-92
2023/07/21 09:31:32;;;;;;;10.10;5.50;;;15.80;99.90;;;;;;4979049;28;20031;-93
2023/07/21 09:34:09;;;;;;;13.77;6.30;;;15.80;99.90;;;;;;4966498;28;20033;-94
2023/07/21 09:36:35;;;;;;;9.52;5.40;;;15.70;99.90;;;;;;4959980;28;20058;-94
2023/07/21 09:39:03;;;;;;;10.68;5.05;;;15.70;99.90;;;;;;4961329;28;20054;-95
2023/07/21 09:41:32;;;;;;;9.98;4.00;;;15.60;99.90;;;;;;4969230;28;20030;-93
2023/07/21 09:43:58;;;;;;;6.55;3.38;;;15.60;99.90;;;;;;4969936;28;20023;-95
2023/07/21 09:46:25;;;;;;;7.15;4.18;;;15.40;99.90;;;;;;4981256;28;20033;-95
2023/07/21 09:48:51;;;;;;;6.03;3.75;;;15.30;99.90;;;;;;4962775;28;20054;-95
2023/07/21 09:51:20;;;;;;;7.68;3.78;;;15.20;99.90;;;;;;4962862;28;20066;-95
2023/07/21 09:53:52;;;;;;;4.97;3.13;;;15.10;99.90;;;;;;4947183;28;20053;-95
2023/07/21 09:56:31;;;;;;;7.30;4.00;;;15.00;99.90;;;;;;4967532;28;20027;-95
2023/07/21 09:59:06;;;;;;;5.93;3.22;;;15.00;99.90;;;;;;4971541;28;20031;-95
2023/07/21 10:01:41;;;;;;;7.18;3.78;;;14.90;99.90;;;;;;4993287;28;20047;-94
2023/07/21 10:04:15;;;;;;;9.70;4.15;;;14.90;99.90;;;;;;4994766;28;20027;-93
2023/07/21 10:07:03;;;;;;;7.82;4.07;;;14.90;99.90;;;;;;4985487;28;20042;-86
2023/07/21 10:10:05;;;;;;;10.63;4.15;;;15.00;99.90;;;;;;4950833;28;20035;-90
2023/07/21 10:12:48;;;;;;;8.18;4.05;;;15.00;99.90;;;;;;5002355;28;20079;-84
2023/07/21 10:15:32;;;;;;;8.02;4.03;;;15.10;99.90;;;;;;4989567;28;20015;-85
2023/07/21 10:18:11;;;;;;;7.10;4.75;;;15.20;99.90;;;;;;4994689;28;20127;-88
2023/07/21 10:20:38;;;;;;;11.05;4.72;;;15.20;99.90;;;;;;4978973;28;20022;-89
2023/07/21 10:23:04;;;;;;;11.23;4.72;;;15.30;99.90;;;;;;5001483;28;20030;-87
2023/07/21 10:25:56;;;;;;;10.68;4.60;;;15.40;99.90;;;;;;4985015;28;20065;-90
2023/07/21 10:28:33;;;;;;;9.10;4.70;;;15.40;99.90;;;;;;4964547;28;20011;-86
2023/07/21 10:31:24;;;;;;;11.32;4.55;;;15.60;99.90;;;;;;4976414;28;20019;-90
2023/07/21 10:34:05;;;;;;;7.10;5.25;;;16.10;99.90;;;;;;4984432;28;20074;-91
2023/07/21 10:36:43;;;;;;;;;;;16.30;99.90;;;;;;5001383;28;20030;-90
2023/07/21 10:39:14;;;;;;;10.05;4.80;;;16.50;99.90;;;;;;4984607;28;19898;-90
2023/07/21 10:41:40;;;;;;;9.27;5.25;;;16.50;99.90;;;;;;4981187;28;20047;-91
2023/07/21 10:44:09;;;;;;;9.90;5.35;;;16.50;99.90;;;;;;4983925;28;20014;-87
2023/07/21 10:46:43;;;;;;;10.27;5.28;;;16.50;99.90;;;;;;4983889;28;20022;-86
2023/07/21 10:49:12;;;;;;;10.50;5.50;;;16.40;99.90;;;;;;4984023;28;20022;-88
2023/07/21 10:51:39;;;;;;;13.18;5.22;;;16.40;99.90;;;;;;4983894;28;20022;-88
2023/07/21 10:54:06;;;;;;;10.90;5.32;;;16.40;99.90;;;;;;4984073;28;20055;-89
2023/07/21 10:56:46;;;;;;;10.45;5.75;;;16.40;99.90;;;;;;4984670;28;20039;-87
2023/07/21 10:59:14;;;;;;;11.48;5.68;;;16.50;99.90;;;;;;4984507;28;20042;-88
2023/07/21 11:01:44;;;;;;;11.00;5.13;;;16.60;99.90;;;;;;4984416;28;20054;-86
2023/07/21 11:04:11;;;;;;;10.40;5.00;;;16.70;99.90;;;;;;5000994;28;20070;-87
2023/07/21 11:06:44;;;;;;;10.23;4.70;;;16.90;99.90;;;;;;4984068;28;20030;-87
2023/07/21 11:09:11;;;;;;;8.60;5.10;;;17.20;99.90;;;;;;4983122;28;20014;-86
2023/07/21 11:11:41;;;;;;;6.03;4.15;;;17.30;99.90;;;;;;4983874;28;20046;-94
2023/07/21 11:14:14;;;;;;;9.87;4.73;;;17.50;99.90;;;;;;4999496;28;20114;-84
2023/07/21 11:16:49;;;;;;;7.60;3.60;;;17.80;99.90;;;;;;5000193;28;20015;-85
2023/07/21 11:19:20;;;;;;;8.25;3.88;;;18.10;99.90;;;;;;5000138;28;20056;-85
2023/07/21 11:21:46;;;;;;;;;;;18.40;99.90;;;;;;4983229;28;20053;-85
2023/07/21 11:24:23;;;;;;;5.93;3.60;;;18.60;99.90;;;;;;4999166;28;19902;-84
2023/07/21 11:26:49;;;;;;;8.25;4.50;;;18.60;97.90;;;;;;4999528;28;20062;-85
2023/07/21 11:29:16;;;;;;;6.72;4.00;;;18.70;96.20;;;;;;4999241;28;20038;-85
2023/07/21 11:31:42;;;;;;;9.23;4.47;;;18.90;95.90;;;;;;4981569;28;20021;-85
2023/07/21 11:34:25;;;;;;;6.35;3.90;;;19.10;95.00;;;;;;4981157;28;20021;-92
2023/07/21 11:36:55;;;;;;;9.23;3.95;;;19.20;92.30;;;;;;4979853;28;20082;-94
2023/07/21 11:39:22;;;;;;;;;;;19.40;91.00;;;;;;4988726;28;20062;-93
2023/07/21 11:41:58;;;;;;;5.53;2.97;;;19.40;90.60;;;;;;4982384;28;19921;-93
2023/07/21 11:44:32;;;;;;;5.90;3.50;;;19.60;90.10;;;;;;4975954;28;20035;-92
2023/07/21 11:47:09;;;;;;;5.82;3.35;;;19.60;87.30;;;;;;4978894;28;20043;-94
2023/07/21 11:49:40;;;;;;;8.15;3.17;;;19.70;85.60;;;;;;4978679;28;20019;-93
2023/07/21 11:52:07;;;;;;;;;;;19.70;84.50;;;;;;4962943;28;20027;-95
2023/07/21 11:54:36;;;;;;;6.07;4.00;;;19.90;84.90;;;;;;4961160;28;21258;-94
2023/07/21 11:57:02;;;;;;;5.93;3.75;;;19.90;84.00;;;;;;4977731;28;20550;-95
2023/07/21 11:59:28;;;;;;;6.65;3.22;;;19.90;83.00;;;;;;4964612;28;20110;-94
2023/07/21 12:01:56;;;;;;;9.30;3.97;;;19.90;83.00;;;;;;4963849;28;20057;-93
2023/07/21 12:04:22;;;;;;;7.55;3.55;;;19.90;83.40;;;;;;4965135;28;20086;-95
2023/07/21 12:06:50;;;;;;;6.22;3.80;;;19.90;83.80;;;;;;4965946;28;20035;-94
2023/07/21 12:09:17;;;;;;;8.65;4.43;;;19.80;84.20;;;;;;4986056;28;20030;-94
2023/07/21 12:11:43;;;;;;;4.57;3.45;;;19.90;84.40;;;;;;4967187;28;20477;-93
2023/07/21 12:14:09;;;;;;;7.47;4.35;;;19.90;84.50;;;;;;4970310;28;20042;-93
2023/07/21 12:16:35;;;;;;;8.27;4.53;;;19.80;84.10;;;;;;4967311;29;20492;-93
2023/07/21 12:19:03;;;;;;;5.60;3.88;;;19.60;83.30;;;;;;4989846;28;20042;-93
2023/07/21 12:21:30;;;;;;;7.75;4.35;;;19.40;83.90;;;;;;4972348;28;20038;-93
2023/07/21 12:23:57;;;;;;;6.28;3.85;;;18.90;85.80;;;;;;4986708;28;20054;-92
2023/07/21 12:26:23;;;;;;;5.35;3.00;;;18.60;90.10;;;;;;4980097;28;20051;-89
2023/07/21 12:28:50;;;;;;;6.78;3.15;;;18.40;91.10;;;;;;4990638;28;20049;-95
2023/07/21 12:31:17;;;;;;;8.98;3.90;;;18.10;92.00;;;;;;4982980;28;20061;-94
2023/07/21 12:33:44;;;;;;;5.07;3.08;;;18.10;93.00;;;;;;4981475;28;20015;-94
2023/07/21 12:36:11;;;;;;;5.57;3.25;;;18.10;94.00;;;;;;4952297;28;20086;-94
2023/07/21 12:38:37;;;;;;;6.25;3.20;;;18.20;94.70;;;;;;4994069;28;20029;-89
2023/07/21 12:41:03;;;;;;;7.03;3.28;;;18.30;95.20;;;;;;4982946;28;20054;-85